sensor_id;sensor_type;location;lat;lon;timestamp;temperature;humidity
55211;DHT22;41082;52.822;6.666;2023-12-07T00:01:29;2.30;99.90
55211;DHT22;41082;52.822;6.666;2023-12-07T00:03:54;2.30;99.90
55211;DHT22;41082;52.822;6.666;2023-12-07T00:06:20;2.30;99.90
55211;DHT22;41082;52.822;6.666;2023-12-07T00:08:46;2.30;99.90
55211;DHT22;41082;52.822;6.666;2023-12-07T00:11:11;2.30;99.90
55211;DHT22;41082;52.822;6.666;2023-12-07T00:13:38;2.30;99.90
55211;DHT22;41082;52.822;6.666;2023-12-07T00:16:04;2.20;99.90
55211;DHT22;41082;52.822;6.666;2023-12-07T00:18:29;2.30;99.90
55211;DHT22;41082;52.822;6.666;2023-12-07T00:20:55;2.30;99.90
55211;DHT22;41082;52.822;6.666;2023-12-07T00:23:21;2.30;99.90
55211;DHT22;41082;52.822;6.666;2023-12-07T00:25:46;2.40;99.90
55211;DHT22;41082;52.822;6.666;2023-12-07T00:28:12;2.40;99.90
55211;DHT22;41082;52.822;6.666;2023-12-07T00:30:38;2.30;99.90
55211;DHT22;41082;52.822;6.666;2023-12-07T00:33:03;2.30;99.90
55211;DHT22;41082;52.822;6.666;2023-12-07T00:35:29;2.40;99.90
55211;DHT22;41082;52.822;6.666;2023-12-07T00:37:57;2.30;99.90
55211;DHT22;41082;52.822;6.666;2023-12-07T00:40:23;2.30;99.90
55211;DHT22;41082;52.822;6.666;2023-12-07T00:42:49;2.30;99.90
55211;DHT22;41082;52.822;6.666;2023-12-07T00:45:15;2.30;99.90
55211;DHT22;41082;52.822;6.666;2023-12-07T00:47:41;2.30;99.90
55211;DHT22;41082;52.822;6.666;2023-12-07T00:50:07;2.30;99.90
55211;DHT22;41082;52.822;6.666;2023-12-07T00:52:33;2.30;99.90
55211;DHT22;41082;52.822;6.666;2023-12-07T00:54:59;2.30;99.90
55211;DHT22;41082;52.822;6.666;2023-12-07T00:57:24;2.40;99.90
55211;DHT22;41082;52.822;6.666;2023-12-07T00:59:50;2.40;99.90
55211;DHT22;41082;52.822;6.666;2023-12-07T01:02:16;2.30;99.90
55211;DHT22;41082;52.822;6.666;2023-12-07T01:04:41;2.30;99.90
55211;DHT22;41082;52.822;6.666;2023-12-07T01:07:07;2.30;99.90
55211;DHT22;41082;52.822;6.666;2023-12-07T01:09:33;2.30;99.90
55211;DHT22;41082;52.822;6.666;2023-12-07T01:12:01;2.30;99.90
55211;DHT22;41082;52.822;6.666;2023-12-07T01:14:27;2.20;99.90
55211;DHT22;41082;52.822;6.666;2023-12-07T01:16:53;2.20;99.90
55211;DHT22;41082;52.822;6.666;2023-12-07T01:19:18;2.30;99.90
55211;DHT22;41082;52.822;6.666;2023-12-07T01:21:44;2.30;99.90
55211;DHT22;41082;52.822;6.666;2023-12-07T01:24:10;2.20;99.90
55211;DHT22;41082;52.822;6.666;2023-12-07T01:26:35;2.30;99.90
55211;DHT22;41082;52.822;6.666;2023-12-07T01:29:01;2.30;99.90
55211;DHT22;41082;52.822;6.666;2023-12-07T01:31:28;2.30;99.90
55211;DHT22;41082;52.822;6.666;2023-12-07T01:33:54;2.30;99.90
55211;DHT22;41082;52.822;6.666;2023-12-07T01:36:20;2.30;99.90
55211;DHT22;41082;52.822;6.666;2023-12-07T01:38:46;2.30;99.90
55211;DHT22;41082;52.822;6.666;2023-12-07T01:41:12;2.30;99.90
55211;DHT22;41082;52.822;6.666;2023-12-07T01:43:43;2.30;99.90
55211;DHT22;41082;52.822;6.666;2023-12-07T01:46:10;2.30;99.90
55211;DHT22;41082;52.822;6.666;2023-12-07T01:48:35;2.40;99.90
55211;DHT22;41082;52.822;6.666;2023-12-07T01:51:01;2.30;99.90
55211;DHT22;41082;52.822;6.666;2023-12-07T01:53:28;2.30;99.90
55211;DHT22;41082;52.822;6.666;2023-12-07T01:55:54;2.40;99.90
55211;DHT22;41082;52.822;6.666;2023-12-07T01:58:20;2.40;99.90
55211;DHT22;41082;52.822;6.666;2023-12-07T02:00:47;2.40;99.90
55211;DHT22;41082;52.822;6.666;2023-12-07T02:03:13;2.40;99.90
55211;DHT22;41082;52.822;6.666;2023-12-07T02:05:43;2.40;99.90
55211;DHT22;41082;52.822;6.666;2023-12-07T02:08:11;2.40;99.90
55211;DHT22;41082;52.822;6.666;2023-12-07T02:10:37;2.40;99.90
55211;DHT22;41082;52.822;6.666;2023-12-07T02:13:03;2.40;99.90
55211;DHT22;41082;52.822;6.666;2023-12-07T02:15:29;2.40;99.90
55211;DHT22;41082;52.822;6.666;2023-12-07T02:23:01;2.40;99.90
55211;DHT22;41082;52.822;6.666;2023-12-07T02:25:45;2.40;99.90
55211;DHT22;41082;52.822;6.666;2023-12-07T02:28:13;2.50;99.90
55211;DHT22;41082;52.822;6.666;2023-12-07T02:30:39;2.40;99.90
55211;DHT22;41082;52.822;6.666;2023-12-07T02:33:04;2.40;99.90
55211;DHT22;41082;52.822;6.666;2023-12-07T02:35:31;2.40;99.90
55211;DHT22;41082;52.822;6.666;2023-12-07T02:37:57;2.40;99.90
55211;DHT22;41082;52.822;6.666;2023-12-07T02:40:26;2.40;99.90
55211;DHT22;41082;52.822;6.666;2023-12-07T02:42:56;2.40;99.90
55211;DHT22;41082;52.822;6.666;2023-12-07T02:45:22;2.40;99.90
55211;DHT22;41082;52.822;6.666;2023-12-07T02:47:48;2.30;99.90
55211;DHT22;41082;52.822;6.666;2023-12-07T02:50:14;2.40;99.90
55211;DHT22;41082;52.822;6.666;2023-12-07T02:52:40;2.40;99.90
55211;DHT22;41082;52.822;6.666;2023-12-07T02:55:06;2.40;99.90
55211;DHT22;41082;52.822;6.666;2023-12-07T02:57:32;2.40;99.90
55211;DHT22;41082;52.822;6.666;2023-12-07T03:00:00;2.30;99.90
55211;DHT22;41082;52.822;6.666;2023-12-07T03:02:26;2.30;99.90
55211;DHT22;41082;52.822;6.666;2023-12-07T03:04:52;2.30;99.90
55211;DHT22;41082;52.822;6.666;2023-12-07T03:07:18;2.20;99.90
55211;DHT22;41082;52.822;6.666;2023-12-07T03:09:44;2.20;99.90
55211;DHT22;41082;52.822;6.666;2023-12-07T03:12:09;2.10;99.90
55211;DHT22;41082;52.822;6.666;2023-12-07T03:14:35;2.10;99.90
55211;DHT22;41082;52.822;6.666;2023-12-07T03:17:00;2.00;99.90
55211;DHT22;41082;52.822;6.666;2023-12-07T03:19:26;2.00;99.90
55211;DHT22;41082;52.822;6.666;2023-12-07T03:21:52;2.00;99.90
55211;DHT22;41082;52.822;6.666;2023-12-07T03:24:18;2.00;99.90
55211;DHT22;41082;52.822;6.666;2023-12-07T03:26:43;2.00;99.90
55211;DHT22;41082;52.822;6.666;2023-12-07T03:29:09;1.90;99.90
55211;DHT22;41082;52.822;6.666;2023-12-07T03:31:35;1.90;99.90
55211;DHT22;41082;52.822;6.666;2023-12-07T03:34:01;1.80;99.90
55211;DHT22;41082;52.822;6.666;2023-12-07T03:36:27;1.80;99.90
55211;DHT22;41082;52.822;6.666;2023-12-07T03:38:53;1.80;99.90
55211;DHT22;41082;52.822;6.666;2023-12-07T03:41:19;1.80;99.90
55211;DHT22;41082;52.822;6.666;2023-12-07T03:43:44;1.80;99.90
55211;DHT22;41082;52.822;6.666;2023-12-07T03:46:10;1.80;99.90
55211;DHT22;41082;52.822;6.666;2023-12-07T03:48:36;1.80;99.90
55211;DHT22;41082;52.822;6.666;2023-12-07T03:51:02;1.80;99.90
55211;DHT22;41082;52.822;6.666;2023-12-07T03:53:28;1.80;99.90
55211;DHT22;41082;52.822;6.666;2023-12-07T03:55:55;1.80;99.90
55211;DHT22;41082;52.822;6.666;2023-12-07T03:58:20;1.80;99.90
55211;DHT22;41082;52.822;6.666;2023-12-07T04:00:46;1.80;99.90
55211;DHT22;41082;52.822;6.666;2023-12-07T04:03:12;1.80;99.90
55211;DHT22;41082;52.822;6.666;2023-12-07T04:05:38;1.80;99.90
55211;DHT22;41082;52.822;6.666;2023-12-07T04:08:03;1.80;99.90
55211;DHT22;41082;52.822;6.666;2023-12-07T04:10:31;1.80;99.90
55211;DHT22;41082;52.822;6.666;2023-12-07T04:12:57;1.70;99.90
55211;DHT22;41082;52.822;6.666;2023-12-07T04:15:23;1.60;99.90
55211;DHT22;41082;52.822;6.666;2023-12-07T04:17:49;1.60;99.90
55211;DHT22;41082;52.822;6.666;2023-12-07T04:20:15;1.50;99.90
55211;DHT22;41082;52.822;6.666;2023-12-07T04:22:41;1.50;99.90
55211;DHT22;41082;52.822;6.666;2023-12-07T04:25:07;1.40;99.90
55211;DHT22;41082;52.822;6.666;2023-12-07T04:27:33;1.40;99.90
55211;DHT22;41082;52.822;6.666;2023-12-07T04:29:59;1.40;99.90
55211;DHT22;41082;52.822;6.666;2023-12-07T04:32:25;1.30;99.90
55211;DHT22;41082;52.822;6.666;2023-12-07T04:34:51;1.30;99.90
55211;DHT22;41082;52.822;6.666;2023-12-07T04:37:17;1.30;99.90
55211;DHT22;41082;52.822;6.666;2023-12-07T04:39:43;1.20;99.90
55211;DHT22;41082;52.822;6.666;2023-12-07T04:42:08;1.20;99.90
55211;DHT22;41082;52.822;6.666;2023-12-07T04:44:34;1.20;99.90
55211;DHT22;41082;52.822;6.666;2023-12-07T04:47:00;1.20;99.90
55211;DHT22;41082;52.822;6.666;2023-12-07T04:49:26;1.20;99.90
55211;DHT22;41082;52.822;6.666;2023-12-07T04:51:52;1.20;99.90
55211;DHT22;41082;52.822;6.666;2023-12-07T04:54:18;1.20;99.90
55211;DHT22;41082;52.822;6.666;2023-12-07T04:56:45;1.30;99.90
55211;DHT22;41082;52.822;6.666;2023-12-07T04:59:10;1.20;99.90
55211;DHT22;41082;52.822;6.666;2023-12-07T05:01:36;1.20;99.90
55211;DHT22;41082;52.822;6.666;2023-12-07T05:04:06;1.20;99.90
55211;DHT22;41082;52.822;6.666;2023-12-07T05:06:32;1.20;99.90
55211;DHT22;41082;52.822;6.666;2023-12-07T05:08:58;1.20;99.90
55211;DHT22;41082;52.822;6.666;2023-12-07T05:11:24;1.20;99.90
55211;DHT22;41082;52.822;6.666;2023-12-07T05:13:49;1.20;99.90
55211;DHT22;41082;52.822;6.666;2023-12-07T05:16:15;1.20;99.90
55211;DHT22;41082;52.822;6.666;2023-12-07T05:18:41;1.30;99.90
55211;DHT22;41082;52.822;6.666;2023-12-07T05:21:07;1.30;99.90
55211;DHT22;41082;52.822;6.666;2023-12-07T05:23:33;1.30;99.90
55211;DHT22;41082;52.822;6.666;2023-12-07T05:25:59;1.30;99.90
55211;DHT22;41082;52.822;6.666;2023-12-07T05:28:26;1.40;99.90
55211;DHT22;41082;52.822;6.666;2023-12-07T05:30:52;1.40;99.90
55211;DHT22;41082;52.822;6.666;2023-12-07T05:33:20;1.40;99.90
55211;DHT22;41082;52.822;6.666;2023-12-07T05:35:46;1.40;99.90
55211;DHT22;41082;52.822;6.666;2023-12-07T05:38:11;1.40;99.90
55211;DHT22;41082;52.822;6.666;2023-12-07T05:40:37;1.40;99.90
55211;DHT22;41082;52.822;6.666;2023-12-07T05:43:03;1.40;99.90
55211;DHT22;41082;52.822;6.666;2023-12-07T05:45:29;1.40;99.90
55211;DHT22;41082;52.822;6.666;2023-12-07T05:47:55;1.40;99.90
55211;DHT22;41082;52.822;6.666;2023-12-07T05:50:21;1.40;99.90
55211;DHT22;41082;52.822;6.666;2023-12-07T05:52:47;1.30;99.90
55211;DHT22;41082;52.822;6.666;2023-12-07T05:55:13;1.30;99.90
55211;DHT22;41082;52.822;6.666;2023-12-07T05:57:39;1.30;99.90
55211;DHT22;41082;52.822;6.666;2023-12-07T06:00:05;1.30;99.90
55211;DHT22;41082;52.822;6.666;2023-12-07T06:02:35;1.30;99.90
55211;DHT22;41082;52.822;6.666;2023-12-07T06:05:01;1.30;99.90
55211;DHT22;41082;52.822;6.666;2023-12-07T06:07:29;1.30;99.90
55211;DHT22;41082;52.822;6.666;2023-12-07T06:09:55;1.30;99.90
55211;DHT22;41082;52.822;6.666;2023-12-07T06:12:21;1.30;99.90
55211;DHT22;41082;52.822;6.666;2023-12-07T06:14:48;1.30;99.90
55211;DHT22;41082;52.822;6.666;2023-12-07T06:17:13;1.30;99.90
55211;DHT22;41082;52.822;6.666;2023-12-07T06:19:39;1.40;99.90
55211;DHT22;41082;52.822;6.666;2023-12-07T06:22:05;1.40;99.90
55211;DHT22;41082;52.822;6.666;2023-12-07T06:24:31;1.40;99.90
55211;DHT22;41082;52.822;6.666;2023-12-07T06:26:58;1.40;99.90
55211;DHT22;41082;52.822;6.666;2023-12-07T06:29:24;1.40;99.90
55211;DHT22;41082;52.822;6.666;2023-12-07T06:31:50;1.40;99.90
55211;DHT22;41082;52.822;6.666;2023-12-07T06:34:16;1.40;99.90
55211;DHT22;41082;52.822;6.666;2023-12-07T06:36:42;1.40;99.90
55211;DHT22;41082;52.822;6.666;2023-12-07T06:39:07;1.40;99.90
55211;DHT22;41082;52.822;6.666;2023-12-07T06:41:33;1.40;99.90
55211;DHT22;41082;52.822;6.666;2023-12-07T06:43:59;1.40;99.90
55211;DHT22;41082;52.822;6.666;2023-12-07T06:46:25;1.30;99.90
55211;DHT22;41082;52.822;6.666;2023-12-07T06:48:50;1.40;99.90
55211;DHT22;41082;52.822;6.666;2023-12-07T06:51:16;1.40;99.90
55211;DHT22;41082;52.822;6.666;2023-12-07T06:53:42;1.40;99.90
55211;DHT22;41082;52.822;6.666;2023-12-07T06:56:08;1.40;99.90
55211;DHT22;41082;52.822;6.666;2023-12-07T06:58:34;1.40;99.90
55211;DHT22;41082;52.822;6.666;2023-12-07T07:01:00;1.40;99.90
55211;DHT22;41082;52.822;6.666;2023-12-07T07:03:26;1.40;99.90
55211;DHT22;41082;52.822;6.666;2023-12-07T07:05:54;1.40;99.90
55211;DHT22;41082;52.822;6.666;2023-12-07T07:08:19;1.40;99.90
55211;DHT22;41082;52.822;6.666;2023-12-07T07:10:45;1.40;99.90
55211;DHT22;41082;52.822;6.666;2023-12-07T07:13:12;1.40;99.90
55211;DHT22;41082;52.822;6.666;2023-12-07T07:15:42;1.40;99.90
55211;DHT22;41082;52.822;6.666;2023-12-07T07:18:09;1.40;99.90
55211;DHT22;41082;52.822;6.666;2023-12-07T07:20:35;1.40;99.90
55211;DHT22;41082;52.822;6.666;2023-12-07T07:23:00;1.30;99.90
55211;DHT22;41082;52.822;6.666;2023-12-07T07:25:26;1.30;99.90
55211;DHT22;41082;52.822;6.666;2023-12-07T07:27:52;1.30;99.90
55211;DHT22;41082;52.822;6.666;2023-12-07T07:30:20;1.30;99.90
55211;DHT22;41082;52.822;6.666;2023-12-07T07:32:46;1.30;99.90
55211;DHT22;41082;52.822;6.666;2023-12-07T07:35:12;1.30;99.90
55211;DHT22;41082;52.822;6.666;2023-12-07T07:37:41;1.30;99.90
55211;DHT22;41082;52.822;6.666;2023-12-07T07:40:10;1.20;99.90
55211;DHT22;41082;52.822;6.666;2023-12-07T07:42:40;1.30;99.90
55211;DHT22;41082;52.822;6.666;2023-12-07T07:45:07;1.20;99.90
55211;DHT22;41082;52.822;6.666;2023-12-07T07:47:32;1.20;99.90
55211;DHT22;41082;52.822;6.666;2023-12-07T07:49:59;1.20;99.90
55211;DHT22;41082;52.822;6.666;2023-12-07T07:52:24;1.20;99.90
55211;DHT22;41082;52.822;6.666;2023-12-07T07:54:50;1.20;99.90
55211;DHT22;41082;52.822;6.666;2023-12-07T07:57:16;1.20;99.90
55211;DHT22;41082;52.822;6.666;2023-12-07T07:59:41;1.20;99.90
55211;DHT22;41082;52.822;6.666;2023-12-07T08:02:07;1.20;99.90
55211;DHT22;41082;52.822;6.666;2023-12-07T08:04:33;1.20;99.90
55211;DHT22;41082;52.822;6.666;2023-12-07T08:06:58;1.30;99.90
55211;DHT22;41082;52.822;6.666;2023-12-07T08:09:24;1.30;99.90
55211;DHT22;41082;52.822;6.666;2023-12-07T08:11:50;1.30;99.90
55211;DHT22;41082;52.822;6.666;2023-12-07T08:14:15;1.30;99.90
55211;DHT22;41082;52.822;6.666;2023-12-07T08:16:45;1.30;99.90
55211;DHT22;41082;52.822;6.666;2023-12-07T08:19:12;1.30;99.90
55211;DHT22;41082;52.822;6.666;2023-12-07T08:21:38;1.30;99.90
55211;DHT22;41082;52.822;6.666;2023-12-07T08:24:04;1.30;99.90
55211;DHT22;41082;52.822;6.666;2023-12-07T08:26:31;1.40;99.90
55211;DHT22;41082;52.822;6.666;2023-12-07T08:28:57;1.30;99.90
55211;DHT22;41082;52.822;6.666;2023-12-07T08:31:23;1.40;99.90
55211;DHT22;41082;52.822;6.666;2023-12-07T08:33:50;1.30;99.90
55211;DHT22;41082;52.822;6.666;2023-12-07T08:36:16;1.40;99.90
55211;DHT22;41082;52.822;6.666;2023-12-07T08:38:42;1.40;99.90
55211;DHT22;41082;52.822;6.666;2023-12-07T08:41:08;1.50;99.90
55211;DHT22;41082;52.822;6.666;2023-12-07T08:43:34;1.50;99.90
55211;DHT22;41082;52.822;6.666;2023-12-07T08:45:59;1.50;99.90
55211;DHT22;41082;52.822;6.666;2023-12-07T08:48:25;1.50;99.90
55211;DHT22;41082;52.822;6.666;2023-12-07T08:50:51;1.40;99.90
55211;DHT22;41082;52.822;6.666;2023-12-07T08:53:17;1.50;99.90
55211;DHT22;41082;52.822;6.666;2023-12-07T08:55:43;1.50;99.90
55211;DHT22;41082;52.822;6.666;2023-12-07T08:58:11;1.50;99.90
55211;DHT22;41082;52.822;6.666;2023-12-07T09:00:37;1.50;99.90
55211;DHT22;41082;52.822;6.666;2023-12-07T09:03:06;1.50;99.90
55211;DHT22;41082;52.822;6.666;2023-12-07T09:05:32;1.50;99.90
55211;DHT22;41082;52.822;6.666;2023-12-07T09:07:58;1.50;99.90
55211;DHT22;41082;52.822;6.666;2023-12-07T09:10:23;1.40;99.90
55211;DHT22;41082;52.822;6.666;2023-12-07T09:12:49;1.50;99.90
55211;DHT22;41082;52.822;6.666;2023-12-07T09:15:15;1.50;99.90
55211;DHT22;41082;52.822;6.666;2023-12-07T09:17:41;1.50;99.90
55211;DHT22;41082;52.822;6.666;2023-12-07T09:20:07;1.50;99.90
55211;DHT22;41082;52.822;6.666;2023-12-07T09:22:46;1.60;99.90
55211;DHT22;41082;52.822;6.666;2023-12-07T09:25:13;1.60;99.90
55211;DHT22;41082;52.822;6.666;2023-12-07T09:27:39;1.60;99.90
55211;DHT22;41082;52.822;6.666;2023-12-07T09:30:06;1.60;99.90
55211;DHT22;41082;52.822;6.666;2023-12-07T09:32:32;1.60;99.90
55211;DHT22;41082;52.822;6.666;2023-12-07T09:35:06;1.60;99.90
55211;DHT22;41082;52.822;6.666;2023-12-07T09:37:36;1.50;99.90
55211;DHT22;41082;52.822;6.666;2023-12-07T09:40:02;1.50;99.90
55211;DHT22;41082;52.822;6.666;2023-12-07T09:42:30;1.50;99.90
55211;DHT22;41082;52.822;6.666;2023-12-07T09:44:55;1.50;99.90
55211;DHT22;41082;52.822;6.666;2023-12-07T09:47:21;1.50;99.90
55211;DHT22;41082;52.822;6.666;2023-12-07T09:49:47;1.60;99.90
55211;DHT22;41082;52.822;6.666;2023-12-07T09:52:13;1.60;99.90
55211;DHT22;41082;52.822;6.666;2023-12-07T09:54:42;1.60;99.90
55211;DHT22;41082;52.822;6.666;2023-12-07T09:57:09;1.60;99.90
55211;DHT22;41082;52.822;6.666;2023-12-07T09:59:40;1.70;99.90
55211;DHT22;41082;52.822;6.666;2023-12-07T10:02:06;1.70;99.90
55211;DHT22;41082;52.822;6.666;2023-12-07T10:04:33;1.80;99.90
55211;DHT22;41082;52.822;6.666;2023-12-07T10:06:58;1.80;99.90
55211;DHT22;41082;52.822;6.666;2023-12-07T10:09:24;1.80;99.90
55211;DHT22;41082;52.822;6.666;2023-12-07T10:12:02;1.80;99.90
55211;DHT22;41082;52.822;6.666;2023-12-07T10:14:29;1.80;99.90
55211;DHT22;41082;52.822;6.666;2023-12-07T10:16:55;1.80;99.90
55211;DHT22;41082;52.822;6.666;2023-12-07T10:19:22;1.80;99.90
55211;DHT22;41082;52.822;6.666;2023-12-07T10:21:49;1.80;99.90
55211;DHT22;41082;52.822;6.666;2023-12-07T10:24:22;1.70;99.90
55211;DHT22;41082;52.822;6.666;2023-12-07T10:26:49;1.80;99.90
55211;DHT22;41082;52.822;6.666;2023-12-07T10:29:17;1.80;99.90
55211;DHT22;41082;52.822;6.666;2023-12-07T10:31:45;1.90;99.90
55211;DHT22;41082;52.822;6.666;2023-12-07T10:34:12;2.00;99.90
55211;DHT22;41082;52.822;6.666;2023-12-07T10:36:38;2.00;99.90
55211;DHT22;41082;52.822;6.666;2023-12-07T10:39:03;2.00;99.90
55211;DHT22;41082;52.822;6.666;2023-12-07T10:41:33;2.00;99.90
55211;DHT22;41082;52.822;6.666;2023-12-07T10:44:01;2.10;99.90
55211;DHT22;41082;52.822;6.666;2023-12-07T10:46:27;2.20;99.90
55211;DHT22;41082;52.822;6.666;2023-12-07T10:49:01;2.20;99.90
55211;DHT22;41082;52.822;6.666;2023-12-07T10:51:34;2.30;99.90
55211;DHT22;41082;52.822;6.666;2023-12-07T10:54:04;2.30;99.90
55211;DHT22;41082;52.822;6.666;2023-12-07T10:56:39;2.30;99.90
55211;DHT22;41082;52.822;6.666;2023-12-07T10:59:09;2.30;99.90
55211;DHT22;41082;52.822;6.666;2023-12-07T11:01:38;2.40;99.90
55211;DHT22;41082;52.822;6.666;2023-12-07T11:04:05;2.30;99.90
55211;DHT22;41082;52.822;6.666;2023-12-07T11:06:32;2.40;99.90
55211;DHT22;41082;52.822;6.666;2023-12-07T11:09:01;2.40;99.90
55211;DHT22;41082;52.822;6.666;2023-12-07T11:18:56;2.40;99.90
55211;DHT22;41082;52.822;6.666;2023-12-07T11:21:22;2.50;99.90
55211;DHT22;41082;52.822;6.666;2023-12-07T11:23:48;2.50;99.90
55211;DHT22;41082;52.822;6.666;2023-12-07T11:26:14;2.50;99.90
55211;DHT22;41082;52.822;6.666;2023-12-07T11:28:39;2.50;99.90
55211;DHT22;41082;52.822;6.666;2023-12-07T11:31:08;2.50;99.90
55211;DHT22;41082;52.822;6.666;2023-12-07T11:33:38;2.50;99.90
55211;DHT22;41082;52.822;6.666;2023-12-07T11:36:06;2.50;99.90
55211;DHT22;41082;52.822;6.666;2023-12-07T11:38:32;2.50;99.90
55211;DHT22;41082;52.822;6.666;2023-12-07T11:40:59;2.50;99.90
55211;DHT22;41082;52.822;6.666;2023-12-07T11:46:04;2.60;99.90
55211;DHT22;41082;52.822;6.666;2023-12-07T11:48:30;2.50;99.90
55211;DHT22;41082;52.822;6.666;2023-12-07T11:51:00;2.50;99.90
55211;DHT22;41082;52.822;6.666;2023-12-07T11:53:28;2.50;99.90
55211;DHT22;41082;52.822;6.666;2023-12-07T11:55:57;2.50;99.90
55211;DHT22;41082;52.822;6.666;2023-12-07T11:58:27;2.40;99.90
55211;DHT22;41082;52.822;6.666;2023-12-07T12:00:54;2.40;99.90
55211;DHT22;41082;52.822;6.666;2023-12-07T12:03:20;2.40;99.90
55211;DHT22;41082;52.822;6.666;2023-12-07T12:05:46;2.40;99.90
55211;DHT22;41082;52.822;6.666;2023-12-07T12:08:12;2.40;99.90
55211;DHT22;41082;52.822;6.666;2023-12-07T12:10:41;2.40;99.90
55211;DHT22;41082;52.822;6.666;2023-12-07T12:13:08;2.40;99.90
55211;DHT22;41082;52.822;6.666;2023-12-07T12:15:34;2.40;99.90
55211;DHT22;41082;52.822;6.666;2023-12-07T12:18:00;2.40;99.90
55211;DHT22;41082;52.822;6.666;2023-12-07T12:20:27;2.40;99.90
55211;DHT22;41082;52.822;6.666;2023-12-07T12:22:53;2.40;99.90
55211;DHT22;41082;52.822;6.666;2023-12-07T12:25:26;2.50;99.90
55211;DHT22;41082;52.822;6.666;2023-12-07T12:27:55;2.40;99.90
55211;DHT22;41082;52.822;6.666;2023-12-07T12:30:21;2.50;99.90
55211;DHT22;41082;52.822;6.666;2023-12-07T12:32:48;2.50;99.90
55211;DHT22;41082;52.822;6.666;2023-12-07T12:35:14;2.50;99.90
55211;DHT22;41082;52.822;6.666;2023-12-07T12:37:45;2.50;99.90
55211;DHT22;41082;52.822;6.666;2023-12-07T12:40:11;2.60;99.90
55211;DHT22;41082;52.822;6.666;2023-12-07T12:42:39;2.60;99.90
55211;DHT22;41082;52.822;6.666;2023-12-07T12:45:07;2.60;99.90
55211;DHT22;41082;52.822;6.666;2023-12-07T12:47:33;2.60;99.90
55211;DHT22;41082;52.822;6.666;2023-12-07T12:50:00;2.60;99.90
55211;DHT22;41082;52.822;6.666;2023-12-07T12:52:28;2.60;99.90
55211;DHT22;41082;52.822;6.666;2023-12-07T12:54:55;2.70;99.90
55211;DHT22;41082;52.822;6.666;2023-12-07T12:57:22;2.70;99.90
55211;DHT22;41082;52.822;6.666;2023-12-07T12:59:49;2.70;99.90
55211;DHT22;41082;52.822;6.666;2023-12-07T13:02:15;2.70;99.90
55211;DHT22;41082;52.822;6.666;2023-12-07T13:04:41;2.70;99.90
55211;DHT22;41082;52.822;6.666;2023-12-07T13:07:06;2.70;99.90
55211;DHT22;41082;52.822;6.666;2023-12-07T13:09:32;2.80;99.90
55211;DHT22;41082;52.822;6.666;2023-12-07T13:11:58;2.70;99.90
55211;DHT22;41082;52.822;6.666;2023-12-07T13:14:24;2.80;99.90
55211;DHT22;41082;52.822;6.666;2023-12-07T13:16:50;2.70;99.90
55211;DHT22;41082;52.822;6.666;2023-12-07T13:19:15;2.70;99.90
55211;DHT22;41082;52.822;6.666;2023-12-07T13:21:41;2.70;99.90
55211;DHT22;41082;52.822;6.666;2023-12-07T13:24:07;2.70;99.90
55211;DHT22;41082;52.822;6.666;2023-12-07T13:26:41;2.70;99.90
55211;DHT22;41082;52.822;6.666;2023-12-07T13:29:06;2.70;99.90
55211;DHT22;41082;52.822;6.666;2023-12-07T13:31:33;2.70;99.90
55211;DHT22;41082;52.822;6.666;2023-12-07T13:34:00;2.70;99.90
55211;DHT22;41082;52.822;6.666;2023-12-07T13:36:26;2.80;99.90
55211;DHT22;41082;52.822;6.666;2023-12-07T13:38:55;2.70;99.90
55211;DHT22;41082;52.822;6.666;2023-12-07T13:41:20;2.80;99.90
55211;DHT22;41082;52.822;6.666;2023-12-07T13:43:47;2.70;99.90
55211;DHT22;41082;52.822;6.666;2023-12-07T13:46:14;2.80;99.90
55211;DHT22;41082;52.822;6.666;2023-12-07T13:48:39;2.80;99.90
55211;DHT22;41082;52.822;6.666;2023-12-07T13:51:06;2.80;99.90
55211;DHT22;41082;52.822;6.666;2023-12-07T13:53:31;2.80;99.90
55211;DHT22;41082;52.822;6.666;2023-12-07T13:55:57;2.80;99.90
55211;DHT22;41082;52.822;6.666;2023-12-07T13:58:23;2.80;99.90
55211;DHT22;41082;52.822;6.666;2023-12-07T14:00:48;2.80;99.90
55211;DHT22;41082;52.822;6.666;2023-12-07T14:03:14;2.90;99.90
55211;DHT22;41082;52.822;6.666;2023-12-07T14:05:40;2.80;99.90
55211;DHT22;41082;52.822;6.666;2023-12-07T14:08:05;2.90;99.90
55211;DHT22;41082;52.822;6.666;2023-12-07T14:10:31;2.80;99.90
55211;DHT22;41082;52.822;6.666;2023-12-07T14:12:57;2.90;99.90
55211;DHT22;41082;52.822;6.666;2023-12-07T14:15:23;2.90;99.90
55211;DHT22;41082;52.822;6.666;2023-12-07T14:17:48;2.90;99.90
55211;DHT22;41082;52.822;6.666;2023-12-07T14:20:14;2.90;99.90
55211;DHT22;41082;52.822;6.666;2023-12-07T14:22:40;2.90;99.90
55211;DHT22;41082;52.822;6.666;2023-12-07T14:25:06;3.00;99.90
55211;DHT22;41082;52.822;6.666;2023-12-07T14:27:31;3.00;99.90
55211;DHT22;41082;52.822;6.666;2023-12-07T14:29:57;3.00;99.90
55211;DHT22;41082;52.822;6.666;2023-12-07T14:32:23;2.90;99.90
55211;DHT22;41082;52.822;6.666;2023-12-07T14:34:49;2.90;99.90
55211;DHT22;41082;52.822;6.666;2023-12-07T14:37:15;3.00;99.90
55211;DHT22;41082;52.822;6.666;2023-12-07T14:39:40;3.00;99.90
55211;DHT22;41082;52.822;6.666;2023-12-07T14:42:06;3.10;99.90
55211;DHT22;41082;52.822;6.666;2023-12-07T14:44:32;3.00;99.90
55211;DHT22;41082;52.822;6.666;2023-12-07T14:47:01;3.00;99.90
55211;DHT22;41082;52.822;6.666;2023-12-07T14:49:27;3.10;99.90
55211;DHT22;41082;52.822;6.666;2023-12-07T14:51:56;3.00;99.90
55211;DHT22;41082;52.822;6.666;2023-12-07T14:54:24;3.10;99.90
55211;DHT22;41082;52.822;6.666;2023-12-07T14:56:49;3.10;99.90
55211;DHT22;41082;52.822;6.666;2023-12-07T14:59:15;3.10;99.90
55211;DHT22;41082;52.822;6.666;2023-12-07T15:01:42;3.10;99.90
55211;DHT22;41082;52.822;6.666;2023-12-07T15:04:08;3.00;99.90
55211;DHT22;41082;52.822;6.666;2023-12-07T15:06:34;3.10;99.90
55211;DHT22;41082;52.822;6.666;2023-12-07T15:09:01;3.10;99.90
55211;DHT22;41082;52.822;6.666;2023-12-07T15:11:31;3.10;99.90
55211;DHT22;41082;52.822;6.666;2023-12-07T15:14:00;3.10;99.90
55211;DHT22;41082;52.822;6.666;2023-12-07T15:16:26;3.10;99.90
55211;DHT22;41082;52.822;6.666;2023-12-07T15:18:51;3.10;99.90
55211;DHT22;41082;52.822;6.666;2023-12-07T15:21:17;3.00;99.90
55211;DHT22;41082;52.822;6.666;2023-12-07T15:23:44;3.10;99.90
55211;DHT22;41082;52.822;6.666;2023-12-07T15:26:10;3.10;99.90
55211;DHT22;41082;52.822;6.666;2023-12-07T15:28:37;3.00;99.90
55211;DHT22;41082;52.822;6.666;2023-12-07T15:31:06;3.10;99.90
55211;DHT22;41082;52.822;6.666;2023-12-07T15:33:33;3.00;99.90
55211;DHT22;41082;52.822;6.666;2023-12-07T15:35:59;3.00;99.90
55211;DHT22;41082;52.822;6.666;2023-12-07T15:38:26;3.10;99.90
55211;DHT22;41082;52.822;6.666;2023-12-07T15:40:51;3.00;99.90
55211;DHT22;41082;52.822;6.666;2023-12-07T15:43:20;3.00;99.90
55211;DHT22;41082;52.822;6.666;2023-12-07T15:45:45;3.00;99.90
55211;DHT22;41082;52.822;6.666;2023-12-07T15:48:11;3.00;99.90
55211;DHT22;41082;52.822;6.666;2023-12-07T15:50:37;3.00;99.90
55211;DHT22;41082;52.822;6.666;2023-12-07T15:53:03;2.90;99.90
55211;DHT22;41082;52.822;6.666;2023-12-07T15:55:28;2.90;99.90